^^
Meteo Knjazevac Station Historical Data
Daily Summary for January 8, 2021 Units:  English    Metric   Both
Daily Weekly Monthly Yearly Custom
  High: Low: Average:
Temperature: 51.1 °F 46.9 °F 49 °F
Dew Point: 48.6 °F 45.9 °F 47.1 °F
Humidity: 98% 89% 93%
Wind Speed: 8mph 2mph 5.5mph
Wind Gust: 16mph - -
Wind- - NE
Pressure: 30.27 in 30.21 in -
Precipitation: 0.37 in    
Historical Graphs
 
 
Tabular Data for January 8, 2021
Time Temperature Dew Point Pressure Wind Wind Speed Wind Gust Humidity Rainfall Rate (Hourly) solar Conditions
00:00 51.1 °F 48.2 °F 30.22 in North 5 mph 9 mph 90% 0.00 in 0 W/m2
00:10 50.9 °F 48.1 °F 30.22 in North 5 mph 8 mph 90% 0.00 in 0 W/m2
00:20 50.9 °F 48.4 °F 30.22 in North 6 mph 11 mph 91% 0.00 in 0 W/m2
00:30 50.9 °F 48.1 °F 30.22 in North 6 mph 12 mph 90% 0.00 in 0 W/m2
00:40 50.9 °F 48.4 °F 30.22 in North 6 mph 13 mph 91% 0.00 in 0 W/m2
00:50 50.7 °F 48.2 °F 30.22 in North 6 mph 13 mph 91% 0.00 in 0 W/m2
01:00 50.5 °F 48 °F 30.22 in North 6 mph 13 mph 91% 0.00 in 0 W/m2
01:10 50.5 °F 48.6 °F 30.22 in North 5 mph 12 mph 93% 0.00 in 0 W/m2
01:20 50.4 °F 48.4 °F 30.22 in North 3 mph 12 mph 93% 0.00 in 0 W/m2
01:30 50.4 °F 48.4 °F 30.22 in North 5 mph 12 mph 93% 0.00 in 0 W/m2
01:40 50.3 °F 48.4 °F 30.22 in North 3 mph 8 mph 93% 0.00 in 0 W/m2
01:50 50.2 °F 48.2 °F 30.22 in North 5 mph 9 mph 93% 0.00 in 0 W/m2
02:00 50.2 °F 48.2 °F 30.22 in North 5 mph 12 mph 93% 0.00 in 0 W/m2
02:10 50.2 °F 47.7 °F 30.22 in North 7 mph 12 mph 91% 0.00 in 0 W/m2
02:20 50.2 °F 48.2 °F 30.22 in North 7 mph 12 mph 93% 0.00 in 0 W/m2
02:30 50.2 °F 47.7 °F 30.22 in NNE 5 mph 12 mph 91% 0.00 in 0 W/m2
02:40 50.2 °F 48.2 °F 30.23 in North 3 mph 9 mph 93% 0.00 in 0 W/m2
02:50 50.2 °F 48.2 °F 30.22 in North 5 mph 10 mph 93% 0.00 in 0 W/m2
03:00 50.2 °F 47.7 °F 30.22 in North 2 mph 13 mph 91% 0.00 in 0 W/m2
03:10 50.2 °F 48.2 °F 30.22 in North 6 mph 12 mph 93% 0.00 in 0 W/m2
03:20 50 °F 47.5 °F 30.22 in North 5 mph 12 mph 91% 0.00 in 0 W/m2
03:30 50.2 °F 47.7 °F 30.21 in North 7 mph 12 mph 91% 0.00 in 0 W/m2
03:40 50.2 °F 47.4 °F 30.21 in North 6 mph 12 mph 90% 0.00 in 0 W/m2
03:50 50.2 °F 47.4 °F 30.22 in North 6 mph 13 mph 90% 0.00 in 0 W/m2
04:00 50.2 °F 47.4 °F 30.21 in North 7 mph 13 mph 90% 0.00 in 0 W/m2
04:10 50.2 °F 47.4 °F 30.21 in North 8 mph 13 mph 90% 0.00 in 0 W/m2
04:20 50.4 °F 47.2 °F 30.21 in North 7 mph 12 mph 89% 0.00 in 0 W/m2
04:30 50.4 °F 47.2 °F 30.22 in North 6 mph 13 mph 89% 0.00 in 0 W/m2
04:40 50.4 °F 47.2 °F 30.21 in North 7 mph 11 mph 89% 0.00 in 0 W/m2
04:50 50.2 °F 47.1 °F 30.21 in North 3 mph 10 mph 89% 0.00 in 0 W/m2
05:00 50.4 °F 47.2 °F 30.21 in North 6 mph 12 mph 89% 0.00 in 0 W/m2
05:10 50.4 °F 47.2 °F 30.22 in North 6 mph 12 mph 89% 0.00 in 0 W/m2
05:20 50.2 °F 47.1 °F 30.22 in North 7 mph 12 mph 89% 0.00 in 0 W/m2
05:30 50.2 °F 47.1 °F 30.22 in North 6 mph 13 mph 89% 0.00 in 0 W/m2
05:40 50 °F 46.9 °F 30.22 in North 6 mph 12 mph 89% 0.00 in 0 W/m2
05:50 50 °F 47.1 °F 30.22 in North 6 mph 12 mph 90% 0.00 in 0 W/m2
06:00 49.8 °F 47 °F 30.22 in North 5 mph 12 mph 90% 0.00 in 0 W/m2
06:10 49.6 °F 46.8 °F 30.22 in North 6 mph 11 mph 90% 0.00 in 0 W/m2
06:20 49.6 °F 46.8 °F 30.22 in North 7 mph 13 mph 90% 0.00 in 0 W/m2
06:30 49.5 °F 46.9 °F 30.22 in North 7 mph 13 mph 91% 0.02 in 0 W/m2
06:40 49.1 °F 47.4 °F 30.22 in North 3 mph 13 mph 94% 0.04 in 0 W/m2
06:50 48.7 °F 47.1 °F 30.22 in North 5 mph 10 mph 94% 0.04 in 1 W/m2
07:00 48.6 °F 47.2 °F 30.23 in North 5 mph 11 mph 95% 0.03 in 3 W/m2
07:10 48.6 °F 47.2 °F 30.23 in North 6 mph 13 mph 95% 0.01 in 6 W/m2
07:20 48.5 °F 47.2 °F 30.23 in North 5 mph 11 mph 95% 0.01 in 8 W/m2
07:30 48.4 °F 47 °F 30.23 in North 6 mph 11 mph 95% 0.01 in 23 W/m2
07:40 48.4 °F 47.3 °F 30.23 in North 6 mph 13 mph 96% 0.01 in 20 W/m2
07:50 48.4 °F 47.3 °F 30.23 in North 6 mph 15 mph 96% 0.00 in 24 W/m2
08:00 48.2 °F 47.1 °F 30.23 in North 3 mph 13 mph 96% 0.00 in 32 W/m2
08:10 48.2 °F 47.1 °F 30.23 in NNE 5 mph 14 mph 96% 0.01 in 29 W/m2
08:20 48 °F 46.9 °F 30.23 in North 5 mph 11 mph 96% 0.01 in 20 W/m2
08:30 48 °F 46.9 °F 30.23 in NNE 6 mph 14 mph 96% 0.01 in 25 W/m2
08:40 47.8 °F 46.8 °F 30.24 in North 6 mph 13 mph 96% 0.01 in 35 W/m2
08:50 47.8 °F 46.8 °F 30.24 in NNE 5 mph 14 mph 96% 0.00 in 39 W/m2
09:00 47.8 °F 46.5 °F 30.24 in North 5 mph 13 mph 95% 0.00 in 56 W/m2
09:10 47.8 °F 46.8 °F 30.24 in NNE 5 mph 13 mph 96% 0.00 in 79 W/m2
09:20 47.8 °F 46.5 °F 30.25 in North 6 mph 11 mph 95% 0.00 in 66 W/m2
09:30 47.7 °F 46.3 °F 30.25 in North 3 mph 15 mph 95% 0.00 in 58 W/m2
09:40 47.8 °F 46.5 °F 30.25 in North 6 mph 16 mph 95% 0.00 in 56 W/m2
09:50 47.8 °F 46.5 °F 30.25 in North 6 mph 16 mph 95% 0.00 in 52 W/m2
10:00 47.8 °F 46.2 °F 30.25 in North 5 mph 14 mph 94% 0.00 in 51 W/m2
10:10 47.8 °F 46.2 °F 30.25 in North 6 mph 13 mph 94% 0.00 in 59 W/m2
10:20 47.8 °F 46.2 °F 30.26 in North 7 mph 14 mph 94% 0.00 in 56 W/m2
10:30 47.8 °F 45.9 °F 30.26 in North 6 mph 16 mph 93% 0.00 in 51 W/m2
10:40 47.8 °F 45.9 °F 30.26 in North 6 mph 15 mph 93% 0.00 in 55 W/m2
10:50 47.8 °F 46.2 °F 30.27 in North 6 mph 14 mph 94% 0.00 in 67 W/m2
11:00 47.7 °F 46 °F 30.27 in North 7 mph 14 mph 94% 0.01 in 53 W/m2
11:10 47.5 °F 46.1 °F 30.27 in North 6 mph 14 mph 95% 0.01 in 69 W/m2
11:20 47.5 °F 46.1 °F 30.27 in North 5 mph 12 mph 95% 0.01 in 110 W/m2
11:30 47.5 °F 46.4 °F 30.27 in North 5 mph 10 mph 96% 0.00 in 117 W/m2
11:40 47.5 °F 46.4 °F 30.27 in North 6 mph 11 mph 96% 0.01 in 103 W/m2
11:50 47.5 °F 46.4 °F 30.27 in North 6 mph 10 mph 96% 0.00 in 112 W/m2
12:00 47.5 °F 46.4 °F 30.26 in North 5 mph 13 mph 96% 0.00 in 78 W/m2
12:10 47.3 °F 46.2 °F 30.26 in North 3 mph 12 mph 96% 0.00 in 59 W/m2
12:20 47.1 °F 46 °F 30.26 in North 5 mph 14 mph 96% 0.01 in 55 W/m2
12:30 47.1 °F 46 °F 30.26 in North 6 mph 15 mph 96% 0.02 in 56 W/m2
12:40 46.9 °F 45.9 °F 30.26 in NNE 6 mph 15 mph 96% 0.01 in 89 W/m2
12:50 47.1 °F 46 °F 30.26 in North 5 mph 15 mph 96% 0.03 in 76 W/m2
13:00 47.1 °F 46.5 °F 30.26 in North 6 mph 12 mph 98% 0.04 in 127 W/m2
13:10 47.1 °F 46.6 °F 30.26 in North 3 mph 12 mph 98% 0.01 in 175 W/m2
13:20 47.3 °F 46.8 °F 30.25 in North 3 mph 11 mph 98% 0.00 in 173 W/m2
13:30 47.3 °F 46.2 °F 30.25 in North 5 mph 16 mph 96% 0.00 in 200 W/m2
13:40 47.3 °F 46.2 °F 30.25 in North 6 mph 13 mph 96% 0.00 in 199 W/m2
13:50 47.3 °F 46.2 °F 30.25 in North 6 mph 14 mph 96% 0.00 in 126 W/m2
Knjazevac, Serbia
Compliments of Weather Underground - 2 mb